Time;durP1;ratioP1;P1;durP2;ratioP2;P2;SDS_P1;SDS_P2;PMS_P1;PMS_P2;Temp;Humidity;BMP_temperature;BMP_pressure;BME280_temperature;BME280_humidity;BME280_pressure;Samples;Min_cycle;Max_cycle;Signal;HPM_P1;HPM_P2
2023/07/17 00:03:05;;;;;;;3.28;2.95;;;;;;;;;;10329786;28;20082;-64
2023/07/17 00:08:06;;;;;;;3.60;3.10;;;;;;;;;;10331168;28;20071;-64
2023/07/17 00:13:04;;;;;;;8.48;3.30;;;;;;;;;;10332300;28;20082;-64
2023/07/17 00:18:04;;;;;;;4.97;3.22;;;;;;;;;;10331931;28;20082;-64
2023/07/17 00:23:02;;;;;;;3.40;3.10;;;;;;;;;;10332100;28;20079;-64
2023/07/17 00:28:04;;;;;;;5.20;3.30;;;;;;;;;;10332434;28;20113;-64
2023/07/17 00:33:04;;;;;;;2.97;2.70;;;;;;;;;;10331378;28;20071;-65
2023/07/17 00:38:06;;;;;;;3.72;3.05;;;;;;;;;;10310040;28;20090;-65
2023/07/17 00:43:19;;;;;;;4.28;3.38;;;;;;;;;;10306592;28;20084;-64
2023/07/17 00:48:19;;;;;;;4.65;3.17;;;;;;;;;;10331346;28;20091;-64
2023/07/17 00:53:20;;;;;;;5.88;3.30;;;;;;;;;;10330631;28;20484;-65
2023/07/17 00:58:20;;;;;;;5.40;3.28;;;;;;;;;;10330390;28;20075;-65
2023/07/17 01:03:20;;;;;;;3.35;2.92;;;;;;;;;;10321285;28;20083;-65
2023/07/17 01:08:21;;;;;;;3.38;2.90;;;;;;;;;;10320049;28;20080;-64
2023/07/17 01:13:19;;;;;;;9.38;3.22;;;;;;;;;;10315061;28;20092;-63
2023/07/17 01:18:18;;;;;;;6.60;3.20;;;;;;;;;;10331101;28;20072;-64
2023/07/17 01:23:17;;;;;;;13.15;3.78;;;;;;;;;;10330333;28;20149;-64
2023/07/17 01:28:16;;;;;;;6.22;3.28;;;;;;;;;;10314529;28;20072;-63
2023/07/17 01:33:14;;;;;;;4.35;3.05;;;;;;;;;;10331850;28;20068;-64
2023/07/17 01:38:12;;;;;;;4.00;3.60;;;;;;;;;;10330853;28;20071;-64
2023/07/17 01:43:12;;;;;;;5.00;3.20;;;;;;;;;;10316281;28;20079;-64
2023/07/17 01:48:10;;;;;;;4.63;3.33;;;;;;;;;;10328010;28;20083;-64
2023/07/17 01:53:08;;;;;;;4.97;3.63;;;;;;;;;;10330579;28;20063;-64
2023/07/17 01:58:07;;;;;;;3.10;2.80;;;;;;;;;;10330046;28;20447;-64
2023/07/17 02:03:06;;;;;;;3.38;3.03;;;;;;;;;;10311671;28;20076;-64
2023/07/17 02:08:06;;;;;;;4.85;3.00;;;;;;;;;;10327530;28;20067;-63
2023/07/17 02:13:05;;;;;;;3.72;3.33;;;;;;;;;;10330526;28;20496;-64
2023/07/17 02:18:04;;;;;;;5.13;3.13;;;;;;;;;;10320518;28;20076;-65
2023/07/17 02:23:03;;;;;;;4.43;2.90;;;;;;;;;;10338319;28;20325;-65
2023/07/17 02:28:04;;;;;;;4.28;3.33;;;;;;;;;;10318147;28;20057;-64
2023/07/17 02:33:03;;;;;;;4.75;3.60;;;;;;;;;;10336419;28;20082;-65
2023/07/17 02:38:01;;;;;;;4.95;3.33;;;;;;;;;;10337710;28;20064;-64
2023/07/17 02:43:00;;;;;;;4.30;3.25;;;;;;;;;;10336349;28;20078;-64
2023/07/17 02:47:59;;;;;;;7.53;3.30;;;;;;;;;;10334103;28;20502;-64
2023/07/17 02:52:57;;;;;;;6.88;3.50;;;;;;;;;;10336956;28;20068;-64
2023/07/17 02:57:55;;;;;;;5.80;3.60;;;;;;;;;;10317293;28;20055;-64
2023/07/17 03:02:55;;;;;;;7.80;3.65;;;;;;;;;;10317657;28;20490;-64
2023/07/17 03:07:54;;;;;;;3.92;3.50;;;;;;;;;;10334018;28;20064;-65
2023/07/17 03:12:52;;;;;;;5.15;3.30;;;;;;;;;;10316254;28;20075;-64
2023/07/17 03:17:50;;;;;;;3.50;3.20;;;;;;;;;;10334439;28;20068;-64
2023/07/17 03:22:50;;;;;;;3.50;3.20;;;;;;;;;;10322924;28;20075;-64
2023/07/17 03:27:48;;;;;;;4.93;3.00;;;;;;;;;;10333208;28;20083;-63
2023/07/17 03:32:46;;;;;;;6.72;3.25;;;;;;;;;;10314643;28;20075;-63
2023/07/17 03:37:45;;;;;;;4.60;3.65;;;;;;;;;;10316337;28;20524;-63
2023/07/17 03:42:44;;;;;;;4.40;3.40;;;;;;;;;;10322159;28;20044;-63
2023/07/17 03:47:44;;;;;;;3.92;3.50;;;;;;;;;;10318487;28;20087;-63
2023/07/17 03:52:44;;;;;;;8.02;4.15;;;;;;;;;;10316380;28;20091;-64
2023/07/17 03:57:42;;;;;;;6.38;4.05;;;;;;;;;;10334060;28;20084;-64
2023/07/17 04:02:42;;;;;;;3.33;3.03;;;;;;;;;;10332909;28;20079;-64
2023/07/17 04:07:50;;;;;;;8.48;3.88;;;;;;;;;;10310767;28;20091;-64
2023/07/17 04:12:48;;;;;;;7.80;4.00;;;;;;;;;;10315063;28;20051;-64
2023/07/17 04:17:48;;;;;;;5.25;3.20;;;;;;;;;;10314387;28;20440;-63
2023/07/17 04:22:47;;;;;;;10.13;3.70;;;;;;;;;;10314669;28;20052;-64
2023/07/17 04:27:47;;;;;;;4.60;3.17;;;;;;;;;;10313569;28;20083;-64
2023/07/17 04:32:47;;;;;;;5.78;3.35;;;;;;;;;;10315886;28;20076;-64
2023/07/17 04:37:50;;;;;;;4.72;3.30;;;;;;;;;;10331561;28;20075;-64
2023/07/17 04:42:48;;;;;;;4.47;3.60;;;;;;;;;;10317505;28;20079;-63
2023/07/17 04:47:47;;;;;;;6.25;3.40;;;;;;;;;;10330192;28;20708;-64
2023/07/17 04:52:45;;;;;;;4.07;3.63;;;;;;;;;;10332621;28;20071;-64
2023/07/17 04:57:45;;;;;;;4.88;3.33;;;;;;;;;;10310440;28;20072;-64
2023/07/17 05:02:44;;;;;;;6.75;3.42;;;;;;;;;;10307097;28;20087;-64
2023/07/17 05:07:43;;;;;;;8.38;4.93;;;;;;;;;;10314620;28;20072;-64
2023/07/17 05:12:43;;;;;;;3.25;2.95;;;;;;;;;;10313948;28;21079;-64
2023/07/17 05:17:43;;;;;;;4.82;4.30;;;;;;;;;;10312439;28;20482;-64
2023/07/17 05:22:41;;;;;;;7.35;3.47;;;;;;;;;;10331302;28;20434;-64
2023/07/17 05:27:40;;;;;;;6.43;3.92;;;;;;;;;;10327373;28;20079;-64
2023/07/17 05:32:38;;;;;;;4.47;3.65;;;;;;;;;;10314966;28;20433;-64
2023/07/17 05:37:38;;;;;;;7.57;3.97;;;;;;;;;;10314254;28;20076;-64
2023/07/17 05:42:38;;;;;;;8.13;3.88;;;;;;;;;;10310705;28;20642;-63
2023/07/17 05:47:37;;;;;;;8.45;7.07;;;;;;;;;;10330141;28;20084;-64
2023/07/17 05:52:35;;;;;;;33.97;28.52;;;;;;;;;;10336607;28;20078;-64
2023/07/17 05:57:37;;;;;;;4.78;3.67;;;;;;;;;;10323119;28;20559;-65
2023/07/17 06:02:36;;;;;;;4.85;4.35;;;;;;;;;;10322058;28;20174;-64
2023/07/17 06:07:35;;;;;;;21.73;19.58;;;;;;;;;;10337451;28;20075;-64
2023/07/17 06:12:34;;;;;;;5.38;4.32;;;;;;;;;;10339208;28;20068;-64
2023/07/17 06:17:35;;;;;;;4.85;3.72;;;;;;;;;;10338551;28;20071;-65
2023/07/17 06:22:33;;;;;;;11.02;6.25;;;;;;;;;;10336331;28;20121;-65
2023/07/17 06:27:32;;;;;;;7.38;4.53;;;;;;;;;;10336206;28;20075;-64
2023/07/17 06:32:30;;;;;;;9.32;4.85;;;;;;;;;;10334005;28;20075;-64
2023/07/17 06:37:30;;;;;;;9.48;5.40;;;;;;;;;;10336745;28;20079;-64
2023/07/17 06:42:30;;;;;;;45.33;41.03;;;;;;;;;;10335728;28;20075;-64
2023/07/17 06:47:28;;;;;;;13.32;10.38;;;;;;;;;;10334957;28;20088;-64
2023/07/17 06:52:38;;;;;;;9.40;5.38;;;;;;;;;;10337179;28;20063;-64
2023/07/17 06:57:36;;;;;;;9.75;5.72;;;;;;;;;;10336387;28;20084;-64
2023/07/17 07:02:35;;;;;;;6.97;5.43;;;;;;;;;;10334329;28;20540;-64
2023/07/17 07:07:38;;;;;;;6.38;5.35;;;;;;;;;;10334785;28;20071;-64
2023/07/17 07:12:36;;;;;;;8.40;5.13;;;;;;;;;;10336309;28;20067;-63
2023/07/17 07:17:34;;;;;;;6.45;4.70;;;;;;;;;;10333409;28;20064;-63
2023/07/17 07:22:33;;;;;;;6.20;4.75;;;;;;;;;;10331691;28;20068;-63
2023/07/17 07:27:32;;;;;;;5.60;4.47;;;;;;;;;;10333835;28;20107;-63
2023/07/17 07:32:30;;;;;;;11.82;7.07;;;;;;;;;;10332830;28;20079;-63
2023/07/17 07:37:29;;;;;;;9.98;5.45;;;;;;;;;;10333514;28;20098;-63
2023/07/17 07:42:27;;;;;;;6.40;5.43;;;;;;;;;;10332787;28;20076;-63
2023/07/17 07:47:27;;;;;;;10.20;6.63;;;;;;;;;;10333137;28;20087;-64
2023/07/17 07:52:25;;;;;;;7.70;5.32;;;;;;;;;;10333109;28;20090;-64
2023/07/17 07:57:23;;;;;;;6.30;5.40;;;;;;;;;;10332300;28;20068;-64
2023/07/17 08:02:23;;;;;;;6.68;6.07;;;;;;;;;;10334505;28;20076;-64
2023/07/17 08:07:23;;;;;;;7.10;5.68;;;;;;;;;;10334482;28;20080;-64
2023/07/17 08:12:21;;;;;;;9.15;6.00;;;;;;;;;;10333228;28;20071;-64
2023/07/17 08:17:20;;;;;;;11.27;5.45;;;;;;;;;;10332996;28;20505;-64
2023/07/17 08:22:18;;;;;;;9.82;8.35;;;;;;;;;;10332405;28;20064;-64
2023/07/17 08:27:20;;;;;;;32.15;28.98;;;;;;;;;;10331305;28;20485;-64
2023/07/17 08:32:18;;;;;;;12.05;6.53;;;;;;;;;;10329387;28;20509;-65
2023/07/17 08:37:16;;;;;;;8.43;6.10;;;;;;;;;;10328427;28;20468;-65
2023/07/17 08:42:14;;;;;;;13.02;10.38;;;;;;;;;;10330985;28;20079;-65
2023/07/17 08:47:14;;;;;;;8.70;5.97;;;;;;;;;;10330382;28;20090;-64
2023/07/17 08:52:13;;;;;;;12.25;6.30;;;;;;;;;;10330869;28;20072;-65
2023/07/17 08:57:12;;;;;;;11.52;6.38;;;;;;;;;;10330051;28;20075;-65
2023/07/17 09:02:10;;;;;;;12.27;6.72;;;;;;;;;;10330863;28;20068;-65
2023/07/17 09:07:10;;;;;;;10.65;6.82;;;;;;;;;;10330006;28;20086;-65
2023/07/17 09:12:09;;;;;;;7.43;5.97;;;;;;;;;;10330580;28;20078;-65
2023/07/17 09:17:08;;;;;;;10.20;6.70;;;;;;;;;;10333704;28;20032;-65
2023/07/17 09:22:07;;;;;;;7.40;6.20;;;;;;;;;;10330992;28;20548;-65
2023/07/17 09:27:07;;;;;;;6.45;5.85;;;;;;;;;;10329416;28;20485;-65
2023/07/17 09:32:15;;;;;;;13.45;6.80;;;;;;;;;;10329826;28;20098;-64
2023/07/17 09:37:14;;;;;;;9.20;6.88;;;;;;;;;;10330767;28;20060;-64
2023/07/17 09:42:24;;;;;;;7.10;6.32;;;;;;;;;;10330025;28;20464;-64
2023/07/17 09:47:22;;;;;;;9.73;6.93;;;;;;;;;;10328302;28;20088;-64
2023/07/17 09:52:21;;;;;;;7.75;5.95;;;;;;;;;;10329758;28;20072;-64
2023/07/17 09:57:25;;;;;;;9.63;6.70;;;;;;;;;;10328333;28;20106;-64
2023/07/17 10:02:28;;;;;;;7.63;5.43;;;;;;;;;;10330106;28;20075;-64
2023/07/17 10:07:27;;;;;;;6.25;5.65;;;;;;;;;;10330133;28;20102;-64
2023/07/17 10:12:27;;;;;;;10.30;6.05;;;;;;;;;;10329844;28;20502;-65
2023/07/17 10:17:30;;;;;;;6.90;5.53;;;;;;;;;;10329238;28;20072;-64
2023/07/17 10:22:29;;;;;;;7.05;6.45;;;;;;;;;;10325534;28;20080;-64
2023/07/17 10:27:39;;;;;;;11.32;5.82;;;;;;;;;;10329197;28;20072;-64
2023/07/17 10:32:40;;;;;;;8.65;6.07;;;;;;;;;;10331573;28;20047;-64
2023/07/17 10:37:41;;;;;;;6.60;5.80;;;;;;;;;;10333178;28;20103;-65
2023/07/17 10:42:44;;;;;;;8.52;5.70;;;;;;;;;;10336947;28;20111;-65
2023/07/17 10:47:42;;;;;;;;;;;;;;;;;;10326854;28;20083;-64
2023/07/17 10:52:40;;;;;;;19.00;7.07;;;;;;;;;;10331424;28;19948;-64
2023/07/17 10:57:39;;;;;;;10.98;6.32;;;;;;;;;;10334774;28;20080;-64
2023/07/17 11:02:38;;;;;;;9.18;6.20;;;;;;;;;;10334291;28;20484;-64
2023/07/17 11:07:37;;;;;;;7.35;5.50;;;;;;;;;;10336485;28;20106;-64
2023/07/17 11:12:35;;;;;;;12.00;6.15;;;;;;;;;;10332957;28;20072;-65
2023/07/17 11:17:33;;;;;;;7.53;6.10;;;;;;;;;;10330697;28;20072;-64
2023/07/17 11:22:33;;;;;;;6.70;5.78;;;;;;;;;;10317034;28;20048;-64
2023/07/17 11:27:31;;;;;;;6.65;6.05;;;;;;;;;;10333772;28;20476;-64
2023/07/17 11:32:31;;;;;;;6.82;4.65;;;;;;;;;;10332699;28;20076;-64
2023/07/17 11:37:29;;;;;;;9.40;5.95;;;;;;;;;;10335863;28;20071;-64
2023/07/17 11:42:29;;;;;;;11.18;5.63;;;;;;;;;;10332970;28;20068;-64
2023/07/17 11:47:29;;;;;;;8.25;6.15;;;;;;;;;;10332855;28;20098;-64
2023/07/17 11:52:32;;;;;;;10.63;5.22;;;;;;;;;;10333469;28;20078;-65
2023/07/17 11:57:31;;;;;;;6.30;5.70;;;;;;;;;;10335281;28;20466;-65
2023/07/17 12:02:30;;;;;;;6.88;4.90;;;;;;;;;;10333495;28;20079;-64
2023/07/17 12:07:28;;;;;;;7.57;5.35;;;;;;;;;;10331750;28;20078;-64
2023/07/17 12:12:26;;;;;;;7.28;4.93;;;;;;;;;;10333785;28;20072;-64
2023/07/17 12:17:26;;;;;;;9.82;5.43;;;;;;;;;;10331943;28;20080;-64
2023/07/17 12:22:24;;;;;;;5.15;4.65;;;;;;;;;;10332691;28;20079;-64
2023/07/17 12:27:23;;;;;;;11.35;5.60;;;;;;;;;;10331147;28;20080;-64
2023/07/17 12:32:26;;;;;;;7.53;6.60;;;;;;;;;;10332803;28;20500;-64
2023/07/17 12:37:24;;;;;;;9.50;5.28;;;;;;;;;;10329894;28;20067;-64
2023/07/17 12:42:22;;;;;;;6.85;6.07;;;;;;;;;;10331497;28;20098;-65
2023/07/17 12:47:21;;;;;;;6.85;4.63;;;;;;;;;;10329761;28;20096;-64
2023/07/17 12:52:23;;;;;;;11.68;5.47;;;;;;;;;;10329708;28;20083;-64
2023/07/17 12:57:21;;;;;;;6.13;5.00;;;;;;;;;;10331021;28;20072;-65
2023/07/17 13:02:26;;;;;;;8.90;5.00;;;;;;;;;;10327677;28;20451;-64
2023/07/17 13:07:26;;;;;;;7.03;5.32;;;;;;;;;;10331420;28;20072;-65
2023/07/17 13:12:24;;;;;;;6.20;5.03;;;;;;;;;;10330864;28;20086;-65
2023/07/17 13:17:42;;;;;;;6.20;4.90;;;;;;;;;;10330035;28;20080;-64
2023/07/17 13:22:45;;;;;;;6.00;3.80;;;;;;;;;;10332130;28;20068;-64
2023/07/17 13:27:43;;;;;;;6.45;4.53;;;;;;;;;;10326979;28;20094;-65
2023/07/17 13:32:41;;;;;;;11.45;4.38;;;;;;;;;;10333788;28;20067;-64
2023/07/17 13:37:40;;;;;;;5.30;4.65;;;;;;;;;;10333881;28;20075;-64
2023/07/17 13:42:39;;;;;;;6.00;4.25;;;;;;;;;;10329640;28;20094;-64
2023/07/17 13:47:37;;;;;;;8.25;4.22;;;;;;;;;;10332594;28;20084;-64
2023/07/17 13:52:36;;;;;;;6.68;4.30;;;;;;;;;;10336049;28;20076;-63
2023/07/17 13:57:34;;;;;;;7.22;4.47;;;;;;;;;;10337718;28;20063;-64
2023/07/17 14:02:34;;;;;;;5.18;4.53;;;;;;;;;;10336089;28;20063;-64
2023/07/17 14:07:32;;;;;;;10.55;6.45;;;;;;;;;;10334588;28;20075;-64
2023/07/17 14:12:30;;;;;;;8.70;5.47;;;;;;;;;;10338072;28;20067;-64
2023/07/17 14:17:29;;;;;;;6.80;4.35;;;;;;;;;;10339090;28;20067;-64
2023/07/17 14:22:28;;;;;;;4.10;3.80;;;;;;;;;;10341230;28;20064;-63
2023/07/17 14:27:27;;;;;;;5.95;4.07;;;;;;;;;;10346013;28;20076;-63
2023/07/17 14:32:25;;;;;;;5.57;4.03;;;;;;;;;;10337813;28;20075;-63
2023/07/17 14:37:23;;;;;;;5.78;4.63;;;;;;;;;;10344488;28;20072;-64
2023/07/17 14:42:23;;;;;;;9.10;4.22;;;;;;;;;;10334995;28;20084;-64
2023/07/17 14:47:22;;;;;;;7.18;4.85;;;;;;;;;;10339215;28;20079;-64
2023/07/17 14:52:20;;;;;;;4.80;4.40;;;;;;;;;;10337234;28;20071;-64
2023/07/17 14:57:19;;;;;;;7.57;5.22;;;;;;;;;;10329417;28;20076;-63
2023/07/17 15:02:18;;;;;;;5.60;4.93;;;;;;;;;;10334800;28;20076;-64
2023/07/17 15:07:16;;;;;;;4.70;4.00;;;;;;;;;;10332548;28;20079;-64
2023/07/17 15:12:15;;;;;;;5.60;3.67;;;;;;;;;;10332150;28;20063;-64
2023/07/17 15:17:13;;;;;;;8.25;4.07;;;;;;;;;;10338956;28;20492;-64
2023/07/17 15:22:13;;;;;;;11.45;4.03;;;;;;;;;;10339899;28;20086;-64
2023/07/17 15:27:11;;;;;;;6.85;3.30;;;;;;;;;;10337428;28;20064;-64
2023/07/17 15:32:09;;;;;;;4.90;4.50;;;;;;;;;;10328036;28;20080;-64
2023/07/17 15:37:07;;;;;;;5.18;4.43;;;;;;;;;;10330381;28;20064;-64
2023/07/17 15:42:07;;;;;;;7.05;4.90;;;;;;;;;;10307955;28;20072;-64
2023/07/17 15:47:06;;;;;;;10.20;5.35;;;;;;;;;;10335586;28;20087;-64
2023/07/17 15:52:04;;;;;;;6.82;4.45;;;;;;;;;;10326712;28;20094;-64
2023/07/17 15:57:03;;;;;;;6.57;4.38;;;;;;;;;;10339714;28;20061;-63
2023/07/17 16:02:03;;;;;;;6.07;4.18;;;;;;;;;;10332597;28;20090;-64
2023/07/17 16:07:01;;;;;;;6.30;4.47;;;;;;;;;;10344077;28;20074;-65
2023/07/17 16:12:00;;;;;;;10.60;4.60;;;;;;;;;;10329829;28;20071;-64
2023/07/17 16:16:58;;;;;;;4.65;3.88;;;;;;;;;;10329523;28;20083;-64
2023/07/17 16:21:58;;;;;;;9.30;4.38;;;;;;;;;;10318843;28;20509;-64
2023/07/17 16:26:56;;;;;;;8.90;4.22;;;;;;;;;;10331984;28;20071;-65
2023/07/17 16:31:54;;;;;;;5.32;4.40;;;;;;;;;;10333235;28;20505;-65
2023/07/17 16:36:52;;;;;;;13.38;5.00;;;;;;;;;;10331585;28;20064;-65
2023/07/17 16:41:52;;;;;;;6.43;4.78;;;;;;;;;;10335467;28;20083;-64
2023/07/17 16:46:51;;;;;;;7.85;4.15;;;;;;;;;;10324922;28;20064;-64
2023/07/17 16:51:49;;;;;;;19.40;7.65;;;;;;;;;;10332597;28;20189;-65
2023/07/17 16:56:47;;;;;;;22.38;9.38;;;;;;;;;;10334276;28;20516;-64
2023/07/17 17:01:47;;;;;;;14.68;5.20;;;;;;;;;;10332324;28;20086;-64
2023/07/17 17:06:45;;;;;;;10.65;5.40;;;;;;;;;;10338889;28;20080;-65
2023/07/17 17:11:44;;;;;;;6.68;5.95;;;;;;;;;;10329356;28;20068;-65
2023/07/17 17:16:43;;;;;;;11.93;5.95;;;;;;;;;;10327815;28;20476;-65
2023/07/17 17:21:43;;;;;;;8.38;5.97;;;;;;;;;;10316343;28;20072;-65
2023/07/17 17:26:41;;;;;;;10.80;6.15;;;;;;;;;;10330143;28;20075;-65
2023/07/17 17:31:40;;;;;;;7.03;5.22;;;;;;;;;;10329799;28;20068;-64
2023/07/17 17:36:38;;;;;;;7.07;6.32;;;;;;;;;;10323503;28;20072;-64
2023/07/17 17:41:38;;;;;;;8.35;6.03;;;;;;;;;;10334652;28;20476;-64
2023/07/17 17:46:36;;;;;;;6.82;6.22;;;;;;;;;;10334827;28;20076;-65
2023/07/17 17:51:34;;;;;;;7.88;6.00;;;;;;;;;;10301402;28;20079;-64
2023/07/17 17:56:35;;;;;;;7.15;5.47;;;;;;;;;;10297809;28;20076;-64
2023/07/17 18:01:34;;;;;;;8.93;6.15;;;;;;;;;;10306622;28;20068;-64
2023/07/17 18:06:32;;;;;;;15.18;7.45;;;;;;;;;;10299644;28;20098;-64
2023/07/17 18:11:31;;;;;;;8.50;5.72;;;;;;;;;;10299064;28;20087;-64
2023/07/17 18:16:35;;;;;;;8.13;6.43;;;;;;;;;;10302309;28;20071;-64
2023/07/17 18:21:36;;;;;;;8.38;6.28;;;;;;;;;;10302441;28;20079;-64
2023/07/17 18:26:34;;;;;;;15.95;6.82;;;;;;;;;;10298759;28;20076;-64
2023/07/17 18:31:33;;;;;;;6.22;5.30;;;;;;;;;;10303662;28;20072;-64
2023/07/17 18:36:34;;;;;;;7.30;6.43;;;;;;;;;;10302482;28;20540;-64
2023/07/17 18:41:32;;;;;;;7.90;6.07;;;;;;;;;;10305790;28;20052;-64
2023/07/17 18:46:30;;;;;;;5.78;5.25;;;;;;;;;;10302543;28;20493;-63
2023/07/17 18:51:28;;;;;;;11.43;6.32;;;;;;;;;;10341043;28;20503;-64
2023/07/17 18:56:28;;;;;;;7.90;6.43;;;;;;;;;;10333920;28;20068;-65
2023/07/17 19:01:26;;;;;;;7.45;5.68;;;;;;;;;;10331492;28;20064;-64
2023/07/17 19:06:25;;;;;;;12.68;6.32;;;;;;;;;;10340811;28;20072;-64
2023/07/17 19:11:23;;;;;;;6.53;4.90;;;;;;;;;;10334902;28;20071;-64
2023/07/17 19:16:22;;;;;;;5.57;4.95;;;;;;;;;;10334050;28;20064;-64
2023/07/17 19:21:21;;;;;;;6.60;4.38;;;;;;;;;;10334795;28;20067;-64
2023/07/17 19:26:19;;;;;;;6.10;3.97;;;;;;;;;;10333176;28;20067;-64
2023/07/17 19:31:17;;;;;;;5.03;3.75;;;;;;;;;;10333669;28;20068;-64
2023/07/17 19:36:18;;;;;;;6.50;3.25;;;;;;;;;;10334048;28;20064;-64
2023/07/17 19:41:16;;;;;;;5.25;3.65;;;;;;;;;;10336294;28;20068;-64
2023/07/17 19:46:16;;;;;;;8.07;4.45;;;;;;;;;;10339070;28;20531;-64
2023/07/17 19:51:14;;;;;;;5.32;3.72;;;;;;;;;;10334864;28;20079;-63
2023/07/17 19:56:15;;;;;;;10.35;4.65;;;;;;;;;;10337566;28;20075;-63
2023/07/17 20:01:13;;;;;;;4.15;3.75;;;;;;;;;;10328553;28;20068;-63
2023/07/17 20:06:13;;;;;;;5.10;4.40;;;;;;;;;;10335456;28;20071;-64
2023/07/17 20:11:11;;;;;;;5.75;4.75;;;;;;;;;;10319567;28;20083;-65
2023/07/17 20:16:11;;;;;;;9.10;4.65;;;;;;;;;;10330238;28;20533;-64
2023/07/17 20:21:09;;;;;;;8.73;4.55;;;;;;;;;;10336638;28;20866;-64
2023/07/17 20:26:07;;;;;;;5.47;3.90;;;;;;;;;;10319947;28;20052;-64
2023/07/17 20:31:05;;;;;;;5.70;4.60;;;;;;;;;;10336903;28;20064;-63
2023/07/17 20:36:05;;;;;;;4.63;4.13;;;;;;;;;;10332036;28;20074;-63
2023/07/17 20:41:03;;;;;;;6.88;4.05;;;;;;;;;;10318346;28;20070;-63
2023/07/17 20:46:02;;;;;;;8.35;4.15;;;;;;;;;;10326036;28;20072;-64
2023/07/17 20:51:01;;;;;;;7.13;3.60;;;;;;;;;;10312608;28;20088;-64
2023/07/17 20:56:01;;;;;;;4.85;3.95;;;;;;;;;;10319477;28;20076;-64
2023/07/17 21:01:01;;;;;;;6.38;3.72;;;;;;;;;;10325199;28;20475;-65
2023/07/17 21:06:00;;;;;;;8.35;3.78;;;;;;;;;;10320351;28;20386;-64
2023/07/17 21:10:58;;;;;;;6.90;3.50;;;;;;;;;;10320382;28;20083;-64
2023/07/17 21:15:59;;;;;;;4.88;3.80;;;;;;;;;;10321683;28;20510;-64
2023/07/17 21:20:57;;;;;;;5.40;3.70;;;;;;;;;;10335410;28;20071;-64
2023/07/17 21:25:55;;;;;;;7.32;3.38;;;;;;;;;;10329529;28;20068;-64
2023/07/17 21:30:54;;;;;;;6.35;4.03;;;;;;;;;;10329039;28;20076;-64
2023/07/17 21:35:53;;;;;;;5.03;3.30;;;;;;;;;;10333042;28;20071;-64
2023/07/17 21:40:51;;;;;;;4.68;3.88;;;;;;;;;;10332482;28;20082;-64
2023/07/17 21:45:50;;;;;;;4.70;3.85;;;;;;;;;;10332181;28;20162;-64
2023/07/17 21:50:48;;;;;;;10.75;4.38;;;;;;;;;;10333159;28;20083;-64
2023/07/17 21:55:48;;;;;;;9.18;3.88;;;;;;;;;;10334964;28;20072;-65
2023/07/17 22:00:47;;;;;;;5.55;3.53;;;;;;;;;;10329037;28;20068;-64
2023/07/17 22:05:46;;;;;;;8.25;3.65;;;;;;;;;;10323290;28;20078;-65
2023/07/17 22:10:44;;;;;;;4.03;3.60;;;;;;;;;;10334240;28;20079;-64
2023/07/17 22:15:44;;;;;;;7.57;3.80;;;;;;;;;;10333893;28;20493;-63
2023/07/17 22:20:42;;;;;;;5.00;3.30;;;;;;;;;;10331545;28;20061;-63
2023/07/17 22:25:40;;;;;;;3.90;3.42;;;;;;;;;;10333270;28;20064;-63
2023/07/17 22:30:38;;;;;;;5.10;4.10;;;;;;;;;;10341599;28;20309;-64
2023/07/17 22:35:38;;;;;;;3.95;3.55;;;;;;;;;;10340507;28;20068;-64
2023/07/17 22:40:36;;;;;;;4.03;3.08;;;;;;;;;;10328355;28;20047;-64
2023/07/17 22:45:34;;;;;;;7.47;3.92;;;;;;;;;;10340565;28;20068;-64
2023/07/17 22:50:33;;;;;;;6.65;3.92;;;;;;;;;;10338860;28;20080;-64
2023/07/17 22:55:32;;;;;;;10.18;4.20;;;;;;;;;;10338622;28;20458;-64
2023/07/17 23:00:30;;;;;;;5.65;3.40;;;;;;;;;;10339045;28;20072;-65
2023/07/17 23:05:31;;;;;;;6.70;3.60;;;;;;;;;;10337477;28;20484;-64
2023/07/17 23:10:30;;;;;;;6.95;3.78;;;;;;;;;;10328675;28;20075;-64
2023/07/17 23:15:30;;;;;;;4.50;3.30;;;;;;;;;;10330854;28;20072;-64
2023/07/17 23:20:28;;;;;;;8.30;3.75;;;;;;;;;;10332459;28;20548;-64
2023/07/17 23:25:26;;;;;;;3.78;3.28;;;;;;;;;;10336218;28;20103;-64
2023/07/17 23:30:25;;;;;;;5.10;3.75;;;;;;;;;;10339219;28;20078;-64
2023/07/17 23:35:25;;;;;;;3.60;3.30;;;;;;;;;;10337203;28;20086;-64
2023/07/17 23:40:24;;;;;;;11.63;3.70;;;;;;;;;;10334797;28;20524;-65
2023/07/17 23:45:23;;;;;;;3.97;3.50;;;;;;;;;;10333467;28;20458;-65
2023/07/17 23:50:21;;;;;;;6.15;3.30;;;;;;;;;;10339741;28;20079;-64
2023/07/17 23:55:21;;;;;;;5.78;3.30;;;;;;;;;;10335996;28;20082;-64
